createdAt,value
2022-08-30T00:01:02.351Z,1.40
2022-08-30T00:03:30.920Z,1.20
2022-08-30T00:05:58.085Z,1.50
2022-08-30T00:08:25.011Z,1.50
2022-08-30T00:10:51.707Z,1.45
2022-08-30T00:13:19.734Z,1.58
2022-08-30T00:15:46.613Z,1.50
2022-08-30T00:18:13.513Z,1.33
2022-08-30T00:20:40.518Z,1.60
2022-08-30T00:23:07.597Z,1.30
2022-08-30T00:25:34.831Z,1.55
2022-08-30T00:28:01.534Z,1.42
2022-08-30T00:30:28.307Z,1.48
2022-08-30T00:32:55.144Z,1.50
2022-08-30T00:35:22.295Z,1.40
2022-08-30T00:37:50.929Z,1.67
2022-08-30T00:40:20.507Z,1.65
2022-08-30T00:42:59.331Z,1.50
2022-08-30T00:45:37.318Z,1.60
2022-08-30T00:48:05.291Z,1.52
2022-08-30T00:50:36.491Z,1.50
2022-08-30T00:53:06.628Z,1.60
2022-08-30T00:55:33.433Z,1.48
2022-08-30T00:58:04.245Z,1.70
2022-08-30T01:00:31.891Z,1.48
2022-08-30T01:02:58.710Z,1.55
2022-08-30T01:05:25.425Z,1.55
2022-08-30T01:07:52.124Z,1.50
2022-08-30T01:10:20.203Z,1.35
2022-08-30T01:12:47.620Z,1.70
2022-08-30T01:15:14.843Z,1.60
2022-08-30T01:17:45.433Z,1.50
2022-08-30T01:20:16.221Z,2.03
2022-08-30T01:22:49.813Z,1.88
2022-08-30T01:25:22.795Z,2.00
2022-08-30T01:27:53.052Z,1.70
2022-08-30T01:30:19.937Z,1.73
2022-08-30T01:32:47.763Z,2.03
2022-08-30T01:35:18.117Z,1.83
2022-08-30T01:37:45.272Z,1.65
2022-08-30T01:40:14.323Z,2.15
2022-08-30T01:42:41.593Z,2.00
2022-08-30T01:45:09.069Z,1.85
2022-08-30T01:47:36.132Z,1.75
2022-08-30T01:50:04.637Z,2.20
2022-08-30T01:52:31.580Z,2.20
2022-08-30T01:54:58.387Z,2.10
2022-08-30T01:57:27.039Z,2.20
2022-08-30T01:59:54.017Z,2.30
2022-08-30T02:02:23.648Z,2.30
2022-08-30T02:04:51.890Z,2.35
2022-08-30T02:07:18.653Z,2.33
2022-08-30T02:09:46.250Z,2.15
2022-08-30T02:12:13.319Z,2.30
2022-08-30T02:14:40.323Z,2.25
2022-08-30T02:17:10.245Z,2.40
2022-08-30T02:19:36.967Z,2.10
2022-08-30T02:22:03.799Z,2.20
2022-08-30T02:24:30.696Z,2.15
2022-08-30T02:26:57.488Z,1.98
2022-08-30T02:29:24.967Z,2.40
2022-08-30T02:31:51.802Z,2.40
2022-08-30T02:34:19.034Z,2.70
2022-08-30T02:36:46.269Z,2.45
2022-08-30T02:39:13.858Z,2.22
2022-08-30T02:41:41.817Z,2.63
2022-08-30T02:44:09.327Z,2.30
2022-08-30T02:46:36.527Z,2.00
2022-08-30T02:49:29.981Z,2.50
2022-08-30T02:51:50.632Z,2.67
2022-08-30T02:54:20.231Z,2.85
2022-08-30T02:56:48.058Z,2.55
2022-08-30T02:59:15.983Z,2.65
2022-08-30T03:01:42.853Z,2.97
2022-08-30T03:04:10.057Z,2.53
2022-08-30T03:06:36.764Z,2.67
2022-08-30T03:09:04.029Z,2.42
2022-08-30T03:11:31.294Z,2.60
2022-08-30T03:13:58.247Z,2.72
2022-08-30T03:16:25.137Z,2.92
2022-08-30T03:18:51.884Z,2.65
2022-08-30T03:21:18.689Z,2.78
2022-08-30T03:23:45.672Z,2.65
2022-08-30T03:26:14.997Z,3.10
2022-08-30T03:28:42.659Z,2.78
2022-08-30T03:31:09.766Z,3.05
2022-08-30T03:33:37.202Z,2.90
2022-08-30T03:36:04.060Z,2.97
2022-08-30T03:38:31.280Z,3.65
2022-08-30T03:40:58.072Z,4.30
2022-08-30T03:43:25.484Z,4.45
2022-08-30T03:45:52.636Z,4.90
2022-08-30T03:48:19.397Z,4.63
2022-08-30T03:50:46.118Z,4.72
2022-08-30T03:53:12.879Z,4.85
2022-08-30T03:55:39.631Z,4.80
2022-08-30T03:58:06.409Z,5.18
2022-08-30T04:00:33.195Z,5.20
2022-08-30T04:03:00.130Z,4.90
2022-08-30T04:05:27.491Z,4.93
2022-08-30T04:07:54.720Z,5.20
2022-08-30T04:10:21.582Z,5.57
2022-08-30T04:12:49.895Z,4.82
2022-08-30T04:15:17.897Z,4.78
2022-08-30T04:17:44.928Z,4.95
2022-08-30T04:20:11.745Z,5.18
2022-08-30T04:22:38.498Z,5.10
2022-08-30T04:25:06.371Z,5.38
2022-08-30T04:27:33.112Z,5.35
2022-08-30T04:30:00.334Z,4.70
2022-08-30T04:32:27.158Z,5.30
2022-08-30T04:34:58.742Z,4.90
2022-08-30T04:37:25.905Z,4.57
2022-08-30T04:40:03.630Z,5.03
2022-08-30T04:42:33.157Z,4.85
2022-08-30T04:45:03.162Z,5.00
2022-08-30T04:47:29.961Z,4.82
2022-08-30T04:49:56.758Z,4.43
2022-08-30T04:52:23.474Z,4.95
2022-08-30T04:54:55.605Z,5.55
2022-08-30T04:57:22.820Z,5.03
2022-08-30T04:59:49.606Z,4.93
2022-08-30T05:02:17.821Z,4.78
2022-08-30T05:05:04.752Z,4.95
2022-08-30T05:07:32.791Z,5.00
2022-08-30T05:09:59.817Z,4.90
2022-08-30T05:12:27.245Z,5.10
2022-08-30T05:14:54.014Z,5.85
2022-08-30T05:17:23.596Z,6.57
2022-08-30T05:19:50.313Z,6.43
2022-08-30T05:22:17.129Z,6.32
2022-08-30T05:24:43.941Z,7.05
2022-08-30T05:27:10.688Z,6.65
2022-08-30T05:29:37.422Z,6.18
2022-08-30T05:32:04.167Z,8.18
2022-08-30T05:34:31.090Z,7.30
2022-08-30T05:36:57.887Z,8.27
2022-08-30T05:39:24.658Z,8.27
2022-08-30T05:41:51.375Z,7.53
2022-08-30T05:44:18.197Z,7.50
2022-08-30T05:46:46.388Z,7.75
2022-08-30T05:49:13.261Z,7.85
2022-08-30T05:51:41.040Z,7.75
2022-08-30T05:54:10.874Z,8.15
2022-08-30T05:56:39.297Z,8.23
2022-08-30T05:59:07.548Z,7.53
2022-08-30T06:01:43.329Z,8.57
2022-08-30T06:04:12.063Z,8.35
2022-08-30T06:06:41.139Z,8.43
2022-08-30T06:09:09.693Z,8.82
2022-08-30T06:11:37.047Z,8.15
2022-08-30T06:14:05.455Z,8.30
2022-08-30T06:16:33.015Z,7.90
2022-08-30T06:19:00.626Z,9.18
2022-08-30T06:21:33.947Z,9.23
2022-08-30T06:24:01.192Z,8.63
2022-08-30T06:26:29.652Z,8.95
2022-08-30T06:28:57.590Z,8.57
2022-08-30T06:31:25.766Z,8.48
2022-08-30T06:33:53.037Z,7.75
2022-08-30T06:36:22.916Z,8.02
2022-08-30T06:38:51.007Z,8.48
2022-08-30T06:41:20.455Z,6.78
2022-08-30T06:43:49.229Z,6.30
2022-08-30T06:46:26.194Z,7.15
2022-08-30T06:48:57.042Z,6.47
2022-08-30T06:51:32.495Z,6.75
2022-08-30T06:54:01.946Z,6.82
2022-08-30T06:56:28.760Z,6.82
2022-08-30T06:58:55.661Z,6.00
2022-08-30T07:01:25.967Z,6.25
2022-08-30T07:03:53.510Z,5.90
2022-08-30T07:06:20.670Z,5.60
2022-08-30T07:08:48.123Z,5.22
2022-08-30T07:11:15.942Z,5.30
2022-08-30T07:13:42.691Z,5.45
2022-08-30T07:16:11.850Z,5.28
2022-08-30T07:18:56.782Z,4.00
2022-08-30T07:21:37.288Z,4.10
2022-08-30T07:24:05.023Z,4.05
2022-08-30T07:26:41.814Z,3.60
2022-08-30T07:29:09.675Z,3.83
2022-08-30T07:31:37.710Z,2.90
2022-08-30T07:34:05.937Z,3.15
2022-08-30T07:36:33.575Z,2.75
2022-08-30T07:39:00.344Z,2.08
2022-08-30T07:41:32.877Z,2.25
2022-08-30T07:43:59.583Z,2.05
2022-08-30T07:46:27.600Z,2.47
2022-08-30T07:48:59.336Z,2.17
2022-08-30T07:51:26.960Z,2.05
2022-08-30T07:53:54.846Z,1.98
2022-08-30T07:56:22.497Z,2.17
2022-08-30T07:58:50.033Z,2.78
2022-08-30T08:01:17.368Z,2.40
2022-08-30T08:03:44.720Z,2.83
2022-08-30T08:06:13.515Z,3.10
2022-08-30T08:08:40.709Z,3.25
2022-08-30T08:11:16.713Z,3.92
2022-08-30T08:13:53.069Z,4.55
2022-08-30T08:16:26.013Z,5.22
2022-08-30T08:18:53.805Z,5.82
2022-08-30T08:21:22.066Z,5.88
2022-08-30T08:23:49.349Z,5.57
2022-08-30T08:26:16.126Z,6.00
2022-08-30T08:28:43.194Z,5.13
2022-08-30T08:31:23.565Z,4.68
2022-08-30T08:33:52.260Z,4.50
2022-08-30T08:36:18.969Z,4.10
2022-08-30T08:38:45.986Z,4.07
2022-08-30T08:41:31.512Z,3.97
2022-08-30T08:43:58.961Z,3.08
2022-08-30T08:46:45.361Z,3.42
2022-08-30T08:49:12.762Z,4.00
2022-08-30T08:51:59.482Z,5.13
2022-08-30T08:54:35.732Z,5.80
2022-08-30T08:57:02.614Z,5.57
2022-08-30T08:59:29.478Z,5.75
2022-08-30T09:02:00.943Z,6.63
2022-08-30T09:04:34.441Z,4.97
2022-08-30T09:07:05.918Z,5.68
2022-08-30T09:09:35.568Z,5.00
2022-08-30T09:12:03.641Z,4.97
2022-08-30T09:14:35.195Z,4.90
2022-08-30T09:17:10.648Z,4.53
2022-08-30T09:19:45.731Z,4.57
2022-08-30T09:22:12.561Z,4.72
2022-08-30T09:24:45.670Z,4.90
2022-08-30T09:27:25.323Z,4.50
2022-08-30T09:29:52.026Z,4.97
2022-08-30T09:32:31.255Z,4.65
2022-08-30T09:34:58.674Z,4.22
2022-08-30T09:37:47.471Z,4.00
2022-08-30T09:40:21.265Z,3.40
2022-08-30T09:43:09.536Z,3.50
2022-08-30T09:45:42.961Z,3.40
2022-08-30T09:48:21.972Z,2.90
2022-08-30T09:50:56.890Z,3.28
2022-08-30T09:53:26.213Z,2.97
2022-08-30T09:56:10.164Z,2.75
2022-08-30T09:58:46.170Z,2.22
2022-08-30T10:01:31.089Z,2.67
2022-08-30T10:04:17.522Z,2.53
2022-08-30T10:06:53.900Z,2.00
2022-08-30T10:09:32.818Z,2.00
2022-08-30T10:12:13.018Z,2.00
2022-08-30T10:14:52.098Z,1.77
2022-08-30T10:17:28.331Z,1.60
2022-08-30T10:20:15.594Z,1.50
2022-08-30T10:22:47.054Z,1.50
2022-08-30T10:25:26.227Z,1.15
2022-08-30T10:27:59.197Z,1.00
2022-08-30T10:30:26.650Z,1.08
2022-08-30T10:33:00.765Z,1.13
2022-08-30T10:35:38.902Z,0.90
2022-08-30T10:38:22.162Z,0.90
2022-08-30T10:41:14.370Z,0.88
2022-08-30T10:43:50.980Z,0.80
2022-08-30T10:46:29.917Z,0.73
2022-08-30T10:48:59.989Z,0.65
2022-08-30T10:51:28.250Z,0.80
2022-08-30T10:53:58.140Z,0.73
2022-08-30T10:56:27.119Z,0.90
2022-08-30T10:58:55.012Z,1.08
2022-08-30T11:01:32.252Z,0.80
2022-08-30T11:04:45.477Z,0.90
2022-08-30T11:07:18.864Z,0.98
2022-08-30T11:09:56.680Z,0.60
2022-08-30T11:12:36.973Z,0.70
2022-08-30T11:15:32.393Z,0.85
2022-08-30T11:18:03.746Z,0.90
2022-08-30T11:21:02.809Z,0.98
2022-08-30T11:23:36.492Z,0.77
2022-08-30T11:26:07.561Z,0.70
2022-08-30T11:28:37.361Z,0.93
2022-08-30T11:31:04.270Z,0.75
2022-08-30T11:33:45.048Z,0.88
2022-08-30T11:36:37.766Z,1.10
2022-08-30T11:39:10.727Z,1.08
2022-08-30T11:41:47.679Z,0.93
2022-08-30T11:44:28.982Z,0.80
2022-08-30T11:46:58.796Z,1.00
2022-08-30T11:49:46.936Z,1.00
2022-08-30T11:52:58.656Z,1.20
2022-08-30T11:55:33.188Z,1.00
2022-08-30T11:58:37.786Z,1.15
2022-08-30T12:01:40.769Z,0.95
2022-08-30T12:04:10.030Z,1.00
2022-08-30T12:06:42.110Z,1.20
2022-08-30T12:09:35.658Z,1.20
2022-08-30T12:12:05.742Z,1.10
2022-08-30T12:14:40.793Z,1.02
2022-08-30T12:17:47.217Z,1.10
2022-08-30T12:20:40.814Z,1.00
2022-08-30T12:23:21.671Z,1.08
2022-08-30T12:25:50.352Z,1.00
2022-08-30T12:28:24.191Z,1.20
2022-08-30T12:30:52.064Z,1.20
2022-08-30T12:33:40.247Z,1.15
2022-08-30T12:36:31.499Z,1.38
2022-08-30T12:39:14.621Z,1.10
2022-08-30T12:41:43.663Z,1.25
2022-08-30T12:44:15.812Z,1.13
2022-08-30T12:46:44.202Z,1.10
2022-08-30T12:49:13.855Z,0.80
2022-08-30T12:51:42.332Z,1.15
2022-08-30T12:54:16.163Z,0.70
2022-08-30T12:56:54.142Z,0.90
2022-08-30T12:59:40.709Z,0.90
2022-08-30T13:02:26.192Z,0.90
2022-08-30T13:04:55.336Z,0.75
2022-08-30T13:07:28.083Z,1.00
2022-08-30T13:10:04.894Z,0.60
2022-08-30T13:12:32.808Z,0.70
2022-08-30T13:15:12.162Z,0.65
2022-08-30T13:17:39.000Z,0.55
2022-08-30T13:20:22.037Z,0.50
2022-08-30T13:23:09.873Z,0.40
2022-08-30T13:25:39.039Z,0.50
2022-08-30T13:28:07.328Z,0.60
2022-08-30T13:30:34.580Z,0.60
2022-08-30T13:33:02.268Z,0.45
2022-08-30T13:35:30.348Z,1.10
2022-08-30T13:37:57.783Z,0.50
2022-08-30T13:40:24.994Z,0.60
2022-08-30T13:42:51.919Z,0.63
2022-08-30T13:48:06.751Z,0.70
2022-08-30T13:50:33.820Z,0.77
2022-08-30T13:53:00.668Z,0.50
2022-08-30T13:55:28.153Z,0.77
2022-08-30T13:57:56.417Z,0.65
2022-08-30T14:00:25.306Z,0.40
2022-08-30T14:02:57.517Z,0.73
2022-08-30T14:11:09.570Z,0.50
2022-08-30T14:13:36.925Z,0.70
2022-08-30T14:18:55.463Z,0.90
2022-08-30T14:21:24.835Z,1.00
2022-08-30T14:23:53.465Z,1.00
2022-08-30T14:26:24.027Z,1.30
2022-08-30T14:28:51.915Z,1.20
2022-08-30T14:31:19.323Z,1.52
2022-08-30T14:33:47.026Z,1.70
2022-08-30T14:36:15.683Z,1.50
2022-08-30T14:38:43.411Z,1.55
2022-08-30T14:41:11.129Z,1.80
2022-08-30T14:43:40.742Z,1.20
2022-08-30T14:46:08.685Z,1.35
2022-08-30T14:48:37.086Z,1.60
2022-08-30T14:51:12.251Z,1.35
2022-08-30T14:53:39.401Z,1.20
2022-08-30T14:56:11.600Z,1.42
2022-08-30T14:58:38.584Z,1.20
2022-08-30T15:01:09.904Z,1.02
2022-08-30T15:03:41.327Z,1.15
2022-08-30T15:06:09.135Z,0.80
2022-08-30T15:08:36.863Z,0.93
2022-08-30T15:11:11.912Z,1.00
2022-08-30T15:13:39.608Z,1.02
2022-08-30T15:16:27.551Z,0.80
2022-08-30T15:18:55.136Z,0.90
2022-08-30T15:21:31.409Z,1.30
2022-08-30T15:24:01.629Z,0.90
2022-08-30T15:26:28.636Z,1.05
2022-08-30T15:28:55.791Z,0.90
2022-08-30T15:31:28.202Z,1.17
2022-08-30T15:33:55.165Z,1.27
2022-08-30T15:36:24.422Z,1.40
2022-08-30T15:38:52.939Z,1.30
2022-08-30T15:41:19.728Z,1.70
2022-08-30T15:43:46.614Z,1.40
2022-08-30T15:46:29.508Z,1.60
2022-08-30T15:49:03.163Z,1.67
2022-08-30T15:51:38.820Z,1.30
2022-08-30T15:54:10.061Z,1.60
2022-08-30T15:56:39.240Z,1.70
2022-08-30T15:59:06.257Z,1.77
2022-08-30T16:01:33.929Z,1.65
2022-08-30T16:04:01.387Z,1.90
2022-08-30T16:06:31.822Z,1.73
2022-08-30T16:08:59.003Z,1.77
2022-08-30T16:11:25.928Z,1.88
2022-08-30T16:13:55.258Z,1.80
2022-08-30T16:16:23.351Z,1.90
2022-08-30T16:18:54.304Z,2.08
2022-08-30T16:21:29.772Z,1.73
2022-08-30T16:23:58.128Z,1.60
2022-08-30T16:26:25.597Z,2.05
2022-08-30T16:28:52.688Z,2.00
2022-08-30T16:31:19.710Z,1.70
2022-08-30T16:33:47.546Z,1.90
2022-08-30T16:36:21.141Z,1.70
2022-08-30T16:38:48.272Z,1.70
2022-08-30T16:41:21.342Z,1.70
2022-08-30T16:43:49.699Z,1.73
2022-08-30T16:46:22.944Z,1.58
2022-08-30T16:48:50.348Z,1.55
2022-08-30T16:51:20.004Z,1.60
2022-08-30T16:53:47.430Z,1.80
2022-08-30T16:56:17.010Z,1.65
2022-08-30T16:58:45.013Z,1.48
2022-08-30T17:01:13.201Z,1.50
2022-08-30T17:03:40.888Z,1.83
2022-08-30T17:06:08.497Z,1.73
2022-08-30T17:08:35.744Z,1.60
2022-08-30T17:11:03.437Z,1.90
2022-08-30T17:13:30.712Z,1.70
2022-08-30T17:16:00.104Z,1.70
2022-08-30T17:18:27.106Z,1.70
2022-08-30T17:20:54.113Z,1.60
2022-08-30T17:23:22.376Z,1.25
2022-08-30T17:25:50.632Z,1.40
2022-08-30T17:28:17.671Z,1.48
2022-08-30T17:30:46.962Z,1.70
2022-08-30T17:33:15.336Z,1.35
2022-08-30T17:35:44.695Z,1.20
2022-08-30T17:38:11.667Z,1.65
2022-08-30T17:40:38.857Z,1.30
2022-08-30T17:43:08.048Z,1.20
2022-08-30T17:45:35.225Z,1.35
2022-08-30T17:48:02.457Z,1.23
2022-08-30T17:50:29.408Z,1.25
2022-08-30T17:53:00.485Z,1.17
2022-08-30T17:55:28.492Z,1.33
2022-08-30T17:58:00.589Z,1.08
2022-08-30T18:00:34.314Z,1.25
2022-08-30T18:03:01.739Z,1.30
2022-08-30T18:05:29.446Z,1.30
2022-08-30T18:07:56.381Z,1.40
2022-08-30T18:10:30.506Z,1.42
2022-08-30T18:13:01.346Z,1.00
2022-08-30T18:15:29.654Z,1.20
2022-08-30T18:17:56.469Z,1.30
2022-08-30T18:20:23.338Z,1.83
2022-08-30T18:22:53.819Z,3.65
2022-08-30T18:25:21.247Z,2.40
2022-08-30T18:27:57.284Z,2.53
2022-08-30T18:30:33.246Z,2.20
2022-08-30T18:33:01.613Z,5.40
2022-08-30T18:35:29.773Z,2.53
2022-08-30T18:37:58.221Z,1.65
2022-08-30T18:40:25.108Z,1.90
2022-08-30T18:42:51.904Z,1.50
2022-08-30T18:45:19.171Z,1.70
2022-08-30T18:47:45.861Z,1.75
2022-08-30T18:50:12.988Z,1.30
2022-08-30T18:52:40.192Z,1.10
2022-08-30T18:55:07.500Z,2.00
2022-08-30T18:57:35.342Z,1.30
2022-08-30T19:00:03.818Z,1.30
2022-08-30T19:02:30.777Z,1.10
2022-08-30T19:04:59.102Z,1.35
2022-08-30T19:07:29.914Z,1.40
2022-08-30T19:10:01.899Z,1.38
2022-08-30T19:12:30.130Z,1.63
2022-08-30T19:14:57.059Z,1.25
2022-08-30T19:17:26.441Z,1.45
2022-08-30T19:19:54.688Z,1.50
2022-08-30T19:22:22.811Z,1.77
2022-08-30T19:24:53.535Z,1.40
2022-08-30T19:27:37.141Z,1.25
2022-08-30T19:30:23.157Z,1.20
2022-08-30T19:32:51.426Z,1.40
2022-08-30T19:35:19.536Z,1.33
2022-08-30T19:37:46.392Z,1.50
2022-08-30T19:40:15.781Z,1.35
2022-08-30T19:42:45.782Z,1.10
2022-08-30T19:45:15.579Z,1.20
2022-08-30T19:47:42.669Z,1.30
2022-08-30T19:50:09.729Z,1.20
2022-08-30T19:52:37.344Z,1.27
2022-08-30T19:55:06.865Z,1.30
2022-08-30T19:57:33.970Z,1.30
2022-08-30T20:00:01.211Z,1.35
2022-08-30T20:02:39.811Z,1.20
2022-08-30T20:05:07.268Z,1.23
2022-08-30T20:07:36.778Z,1.60
2022-08-30T20:10:07.457Z,1.50
2022-08-30T20:12:35.843Z,1.60
2022-08-30T20:15:09.319Z,1.65
2022-08-30T20:17:53.665Z,1.30
2022-08-30T20:20:24.086Z,1.80
2022-08-30T20:22:54.056Z,1.30
2022-08-30T20:25:21.607Z,1.35
2022-08-30T20:27:49.197Z,1.55
2022-08-30T20:30:17.822Z,1.65
2022-08-30T20:32:46.830Z,1.60
2022-08-30T20:35:15.532Z,1.58
2022-08-30T20:37:43.403Z,2.10
2022-08-30T20:40:15.595Z,1.80
2022-08-30T20:42:45.704Z,1.48
2022-08-30T20:45:15.289Z,1.70
2022-08-30T20:47:43.163Z,1.52
2022-08-30T20:50:13.771Z,1.70
2022-08-30T20:52:41.855Z,1.83
2022-08-30T20:55:09.362Z,1.45
2022-08-30T20:57:36.173Z,1.80
2022-08-30T21:00:09.379Z,1.40
2022-08-30T21:02:36.940Z,1.60
2022-08-30T21:05:10.826Z,1.70
2022-08-30T21:07:37.599Z,1.98
2022-08-30T21:10:04.802Z,1.63
2022-08-30T21:12:32.098Z,1.20
2022-08-30T21:14:59.214Z,1.50
2022-08-30T21:17:27.346Z,1.13
2022-08-30T21:19:55.401Z,1.15
2022-08-30T21:22:23.154Z,1.42
2022-08-30T21:24:49.955Z,1.60
2022-08-30T21:27:16.721Z,1.45
2022-08-30T21:29:43.646Z,0.90
2022-08-30T21:32:10.585Z,1.40
2022-08-30T21:34:56.023Z,1.10
2022-08-30T21:37:22.791Z,1.10
2022-08-30T21:39:49.743Z,1.30
2022-08-30T21:42:16.848Z,1.02
2022-08-30T21:44:43.545Z,1.10
2022-08-30T21:47:13.251Z,1.08
2022-08-30T21:49:49.961Z,1.10
2022-08-30T21:52:16.866Z,1.00
2022-08-30T21:54:43.573Z,0.90
2022-08-30T21:57:10.302Z,1.20
2022-08-30T21:59:36.987Z,0.90
2022-08-30T22:02:04.441Z,1.08
2022-08-30T22:04:31.227Z,0.90
2022-08-30T22:06:58.008Z,1.05
2022-08-30T22:09:25.511Z,1.00
2022-08-30T22:11:52.441Z,0.80
2022-08-30T22:14:19.950Z,0.80
2022-08-30T22:16:46.789Z,0.80
2022-08-30T22:19:13.568Z,1.35
2022-08-30T22:21:42.066Z,0.95
2022-08-30T22:24:09.737Z,0.90
2022-08-30T22:26:36.733Z,0.80
2022-08-30T22:29:05.192Z,0.93
2022-08-30T22:31:32.105Z,0.70
2022-08-30T22:33:59.010Z,0.70
2022-08-30T22:36:32.624Z,0.70
2022-08-30T22:39:00.874Z,0.70
2022-08-30T22:41:31.385Z,0.80
2022-08-30T22:43:58.844Z,0.75
2022-08-30T22:46:34.623Z,1.00
2022-08-30T22:49:02.461Z,0.93
2022-08-30T22:51:29.275Z,0.75
2022-08-30T22:53:56.089Z,1.00
2022-08-30T22:56:25.737Z,0.82
2022-08-30T22:58:53.455Z,0.80
2022-08-30T23:01:23.886Z,0.73
2022-08-30T23:03:51.863Z,0.68
2022-08-30T23:06:19.092Z,0.85
2022-08-30T23:08:45.853Z,1.05
2022-08-30T23:11:12.837Z,1.00
2022-08-30T23:13:39.713Z,0.93
2022-08-30T23:16:07.941Z,0.70
2022-08-30T23:18:36.897Z,1.10
2022-08-30T23:21:10.872Z,0.82
2022-08-30T23:23:57.046Z,0.82
2022-08-30T23:26:42.773Z,0.70
2022-08-30T23:29:28.118Z,0.90
2022-08-30T23:32:13.764Z,0.80
2022-08-30T23:34:59.225Z,0.95
2022-08-30T23:37:44.544Z,1.02
2022-08-30T23:40:33.106Z,0.95
2022-08-30T23:43:18.625Z,0.98
2022-08-30T23:46:04.329Z,1.00
2022-08-30T23:48:51.981Z,1.00
2022-08-30T23:51:37.876Z,1.20
2022-08-30T23:54:24.311Z,1.10
2022-08-30T23:57:09.662Z,1.10
2022-08-30T23:59:55.113Z,0.98
